sensor_id;sensor_type;location;lat;lon;timestamp;pressure;altitude;pressure_sealevel;temperature;humidity
51999;BME280;38015;50.924;11.598;2022-10-16T00:01:06;99153.40;;;21.04;46.86
51999;BME280;38015;50.924;11.598;2022-10-16T00:03:34;99152.11;;;21.04;46.87
51999;BME280;38015;50.924;11.598;2022-10-16T00:06:04;99158.20;;;21.08;46.83
51999;BME280;38015;50.924;11.598;2022-10-16T00:08:35;99165.09;;;21.03;46.93
51999;BME280;38015;50.924;11.598;2022-10-16T00:11:06;99168.95;;;20.98;47.14
51999;BME280;38015;50.924;11.598;2022-10-16T00:13:37;99175.33;;;20.97;47.14
51999;BME280;38015;50.924;11.598;2022-10-16T00:16:06;99180.01;;;20.97;47.13
51999;BME280;38015;50.924;11.598;2022-10-16T00:18:36;99174.03;;;20.99;47.03
51999;BME280;38015;50.924;11.598;2022-10-16T00:21:08;99169.86;;;21.01;46.98
51999;BME280;38015;50.924;11.598;2022-10-16T00:23:37;99166.51;;;21.03;46.93
51999;BME280;38015;50.924;11.598;2022-10-16T00:26:10;99159.98;;;20.94;47.17
51999;BME280;38015;50.924;11.598;2022-10-16T00:28:38;99156.75;;;20.97;47.09
51999;BME280;38015;50.924;11.598;2022-10-16T00:31:10;99160.05;;;21.01;47.05
51999;BME280;38015;50.924;11.598;2022-10-16T00:33:40;99162.37;;;20.95;47.15
51999;BME280;38015;50.924;11.598;2022-10-16T00:36:11;99161.48;;;20.91;47.27
51999;BME280;38015;50.924;11.598;2022-10-16T00:38:40;99158.37;;;20.86;47.38
51999;BME280;38015;50.924;11.598;2022-10-16T00:41:12;99148.68;;;21.01;47.00
51999;BME280;38015;50.924;11.598;2022-10-16T00:43:42;99147.29;;;20.88;47.27
51999;BME280;38015;50.924;11.598;2022-10-16T00:46:15;99152.56;;;20.94;47.15
51999;BME280;38015;50.924;11.598;2022-10-16T00:48:43;99154.16;;;20.95;47.12
51999;BME280;38015;50.924;11.598;2022-10-16T00:51:11;99164.58;;;20.90;47.20
51999;BME280;38015;50.924;11.598;2022-10-16T00:53:42;99171.47;;;20.93;47.11
51999;BME280;38015;50.924;11.598;2022-10-16T00:56:12;99178.07;;;20.93;47.11
51999;BME280;38015;50.924;11.598;2022-10-16T00:58:43;99174.07;;;20.93;47.07
51999;BME280;38015;50.924;11.598;2022-10-16T01:01:13;99178.13;;;20.90;47.18
51999;BME280;38015;50.924;11.598;2022-10-16T01:03:43;99186.11;;;20.94;47.04
51999;BME280;38015;50.924;11.598;2022-10-16T01:06:23;99190.12;;;20.95;47.07
51999;BME280;38015;50.924;11.598;2022-10-16T01:08:50;99186.23;;;21.00;46.91
51999;BME280;38015;50.924;11.598;2022-10-16T01:11:19;99186.92;;;21.01;46.86
51999;BME280;38015;50.924;11.598;2022-10-16T01:13:52;99184.78;;;21.00;46.88
51999;BME280;38015;50.924;11.598;2022-10-16T01:16:21;99183.76;;;21.04;46.77
51999;BME280;38015;50.924;11.598;2022-10-16T01:18:47;99184.89;;;21.04;46.76
51999;BME280;38015;50.924;11.598;2022-10-16T01:21:19;99183.21;;;21.06;46.70
51999;BME280;38015;50.924;11.598;2022-10-16T01:23:55;99181.63;;;21.08;46.65
51999;BME280;38015;50.924;11.598;2022-10-16T01:26:30;99187.03;;;21.03;46.76
51999;BME280;38015;50.924;11.598;2022-10-16T01:28:51;99182.48;;;21.06;46.68
51999;BME280;38015;50.924;11.598;2022-10-16T01:31:19;99175.03;;;21.05;46.68
51999;BME280;38015;50.924;11.598;2022-10-16T01:33:52;99178.17;;;21.01;46.76
51999;BME280;38015;50.924;11.598;2022-10-16T01:36:23;99178.13;;;21.04;46.68
51999;BME280;38015;50.924;11.598;2022-10-16T01:38:52;99169.97;;;21.06;46.63
51999;BME280;38015;50.924;11.598;2022-10-16T01:41:21;99171.30;;;21.03;46.66
51999;BME280;38015;50.924;11.598;2022-10-16T01:43:55;99179.22;;;21.03;46.66
51999;BME280;38015;50.924;11.598;2022-10-16T01:46:21;99174.23;;;21.01;46.71
51999;BME280;38015;50.924;11.598;2022-10-16T01:48:51;99181.73;;;20.98;46.77
51999;BME280;38015;50.924;11.598;2022-10-16T01:51:21;99186.62;;;20.96;46.85
51999;BME280;38015;50.924;11.598;2022-10-16T01:53:54;99184.06;;;20.99;46.75
51999;BME280;38015;50.924;11.598;2022-10-16T01:56:23;99179.67;;;21.03;46.62
51999;BME280;38015;50.924;11.598;2022-10-16T01:58:55;99179.15;;;21.03;46.62
51999;BME280;38015;50.924;11.598;2022-10-16T02:01:24;99188.30;;;21.02;46.61
51999;BME280;38015;50.924;11.598;2022-10-16T02:03:54;99191.12;;;21.06;46.50
51999;BME280;38015;50.924;11.598;2022-10-16T02:06:23;99199.35;;;20.99;46.64
51999;BME280;38015;50.924;11.598;2022-10-16T02:08:54;99201.12;;;20.97;46.70
51999;BME280;38015;50.924;11.598;2022-10-16T02:11:24;99206.73;;;21.02;46.57
51999;BME280;38015;50.924;11.598;2022-10-16T02:13:58;99210.49;;;21.01;46.58
51999;BME280;38015;50.924;11.598;2022-10-16T02:16:33;99213.48;;;21.00;46.59
51999;BME280;38015;50.924;11.598;2022-10-16T02:18:55;99210.91;;;21.01;46.58
51999;BME280;38015;50.924;11.598;2022-10-16T02:21:30;99209.77;;;20.95;46.73
51999;BME280;38015;50.924;11.598;2022-10-16T02:24:01;99211.24;;;21.00;46.60
51999;BME280;38015;50.924;11.598;2022-10-16T02:26:30;99213.54;;;20.99;46.61
51999;BME280;38015;50.924;11.598;2022-10-16T02:29:02;99218.40;;;20.96;46.67
51999;BME280;38015;50.924;11.598;2022-10-16T02:31:31;99215.04;;;21.00;46.59
51999;BME280;38015;50.924;11.598;2022-10-16T02:33:59;99218.28;;;21.02;46.53
51999;BME280;38015;50.924;11.598;2022-10-16T02:36:29;99220.31;;;21.00;46.57
51999;BME280;38015;50.924;11.598;2022-10-16T02:38:59;99212.48;;;21.00;46.59
51999;BME280;38015;50.924;11.598;2022-10-16T02:41:30;99202.93;;;20.99;46.57
51999;BME280;38015;50.924;11.598;2022-10-16T02:43:59;99211.06;;;20.98;46.62
51999;BME280;38015;50.924;11.598;2022-10-16T02:46:30;99215.09;;;20.95;46.72
51999;BME280;38015;50.924;11.598;2022-10-16T02:49:00;99209.26;;;20.95;46.67
51999;BME280;38015;50.924;11.598;2022-10-16T02:51:31;99205.62;;;20.96;46.62
51999;BME280;38015;50.924;11.598;2022-10-16T02:54:01;99211.04;;;20.97;46.58
51999;BME280;38015;50.924;11.598;2022-10-16T02:56:31;99216.30;;;21.00;46.47
51999;BME280;38015;50.924;11.598;2022-10-16T02:59:03;99220.36;;;20.94;46.65
51999;BME280;38015;50.924;11.598;2022-10-16T03:01:32;99226.10;;;21.00;46.50
51999;BME280;38015;50.924;11.598;2022-10-16T03:04:03;99231.00;;;20.95;46.63
51999;BME280;38015;50.924;11.598;2022-10-16T03:06:33;99231.28;;;20.98;46.55
51999;BME280;38015;50.924;11.598;2022-10-16T03:09:03;99224.91;;;20.98;46.61
51999;BME280;38015;50.924;11.598;2022-10-16T03:11:34;99223.61;;;20.94;46.68
51999;BME280;38015;50.924;11.598;2022-10-16T03:14:04;99225.92;;;20.95;46.65
51999;BME280;38015;50.924;11.598;2022-10-16T03:16:35;99232.71;;;20.93;46.68
51999;BME280;38015;50.924;11.598;2022-10-16T03:19:05;99236.98;;;20.95;46.62
51999;BME280;38015;50.924;11.598;2022-10-16T03:21:36;99232.58;;;20.92;46.69
51999;BME280;38015;50.924;11.598;2022-10-16T03:24:06;99228.01;;;20.95;46.58
51999;BME280;38015;50.924;11.598;2022-10-16T03:26:37;99223.94;;;20.94;46.62
51999;BME280;38015;50.924;11.598;2022-10-16T03:29:07;99218.21;;;20.95;46.60
51999;BME280;38015;50.924;11.598;2022-10-16T03:31:37;99208.61;;;20.94;46.58
51999;BME280;38015;50.924;11.598;2022-10-16T03:34:08;99209.95;;;20.94;46.58
51999;BME280;38015;50.924;11.598;2022-10-16T03:36:38;99207.16;;;20.98;46.48
51999;BME280;38015;50.924;11.598;2022-10-16T03:39:08;99211.08;;;20.96;46.53
51999;BME280;38015;50.924;11.598;2022-10-16T03:41:39;99206.07;;;20.91;46.61
51999;BME280;38015;50.924;11.598;2022-10-16T03:44:09;99207.42;;;20.93;46.58
51999;BME280;38015;50.924;11.598;2022-10-16T03:46:40;99197.96;;;20.92;46.58
51999;BME280;38015;50.924;11.598;2022-10-16T03:49:10;99190.05;;;21.00;46.35
51999;BME280;38015;50.924;11.598;2022-10-16T03:51:40;99200.18;;;20.94;46.50
51999;BME280;38015;50.924;11.598;2022-10-16T03:54:11;99211.66;;;20.89;46.63
51999;BME280;38015;50.924;11.598;2022-10-16T03:56:41;99214.67;;;20.90;46.59
51999;BME280;38015;50.924;11.598;2022-10-16T03:59:12;99204.72;;;20.90;46.56
51999;BME280;38015;50.924;11.598;2022-10-16T04:01:42;99213.39;;;20.95;46.43
51999;BME280;38015;50.924;11.598;2022-10-16T04:04:13;99221.61;;;20.90;46.54
51999;BME280;38015;50.924;11.598;2022-10-16T04:06:43;99224.19;;;20.95;46.43
51999;BME280;38015;50.924;11.598;2022-10-16T04:09:13;99239.99;;;20.95;46.38
51999;BME280;38015;50.924;11.598;2022-10-16T04:11:44;99242.72;;;20.96;46.37
51999;BME280;38015;50.924;11.598;2022-10-16T04:14:14;99240.59;;;20.95;46.38
51999;BME280;38015;50.924;11.598;2022-10-16T04:16:45;99243.04;;;21.00;46.27
51999;BME280;38015;50.924;11.598;2022-10-16T04:19:15;99246.76;;;20.96;46.36
51999;BME280;38015;50.924;11.598;2022-10-16T04:21:45;99252.20;;;20.97;46.34
51999;BME280;38015;50.924;11.598;2022-10-16T04:24:16;99257.53;;;20.95;46.41
51999;BME280;38015;50.924;11.598;2022-10-16T04:26:47;99259.06;;;20.93;46.46
51999;BME280;38015;50.924;11.598;2022-10-16T04:29:17;99263.11;;;20.91;46.49
51999;BME280;38015;50.924;11.598;2022-10-16T04:31:47;99267.12;;;20.94;46.40
51999;BME280;38015;50.924;11.598;2022-10-16T04:34:17;99271.61;;;20.91;46.47
51999;BME280;38015;50.924;11.598;2022-10-16T04:36:48;99273.91;;;20.95;46.37
51999;BME280;38015;50.924;11.598;2022-10-16T04:39:18;99278.98;;;20.97;46.33
51999;BME280;38015;50.924;11.598;2022-10-16T04:41:49;99294.14;;;20.94;46.41
51999;BME280;38015;50.924;11.598;2022-10-16T04:44:19;99299.06;;;20.89;46.52
51999;BME280;38015;50.924;11.598;2022-10-16T04:46:50;99295.48;;;20.94;46.40
51999;BME280;38015;50.924;11.598;2022-10-16T04:49:20;99287.94;;;20.91;46.46
51999;BME280;38015;50.924;11.598;2022-10-16T04:51:50;99286.54;;;20.99;46.27
51999;BME280;38015;50.924;11.598;2022-10-16T04:54:21;99283.93;;;20.94;46.47
51999;BME280;38015;50.924;11.598;2022-10-16T04:56:51;99287.37;;;20.90;46.59
51999;BME280;38015;50.924;11.598;2022-10-16T04:59:25;99298.81;;;20.90;46.51
51999;BME280;38015;50.924;11.598;2022-10-16T05:01:52;99304.30;;;20.97;46.34
51999;BME280;38015;50.924;11.598;2022-10-16T05:04:23;99311.86;;;20.96;46.37
51999;BME280;38015;50.924;11.598;2022-10-16T05:06:53;99318.88;;;20.94;46.40
51999;BME280;38015;50.924;11.598;2022-10-16T05:09:23;99323.60;;;20.91;46.47
51999;BME280;38015;50.924;11.598;2022-10-16T05:11:54;99321.12;;;20.95;46.35
51999;BME280;38015;50.924;11.598;2022-10-16T05:14:24;99311.43;;;20.91;46.46
51999;BME280;38015;50.924;11.598;2022-10-16T05:16:54;99311.37;;;20.91;46.46
51999;BME280;38015;50.924;11.598;2022-10-16T05:19:25;99308.01;;;20.88;46.53
51999;BME280;38015;50.924;11.598;2022-10-16T05:21:56;99309.31;;;20.84;46.62
51999;BME280;38015;50.924;11.598;2022-10-16T05:24:26;99313.21;;;20.88;46.51
51999;BME280;38015;50.924;11.598;2022-10-16T05:26:56;99320.39;;;20.89;46.46
51999;BME280;38015;50.924;11.598;2022-10-16T05:29:27;99323.00;;;20.90;46.47
51999;BME280;38015;50.924;11.598;2022-10-16T05:31:57;99321.58;;;20.95;46.35
51999;BME280;38015;50.924;11.598;2022-10-16T05:34:27;99318.38;;;20.89;46.51
51999;BME280;38015;50.924;11.598;2022-10-16T05:36:58;99314.63;;;20.88;46.51
51999;BME280;38015;50.924;11.598;2022-10-16T05:39:28;99320.20;;;20.85;46.65
51999;BME280;38015;50.924;11.598;2022-10-16T05:41:59;99332.24;;;20.88;46.53
51999;BME280;38015;50.924;11.598;2022-10-16T05:44:29;99344.98;;;20.88;46.54
51999;BME280;38015;50.924;11.598;2022-10-16T05:46:59;99343.33;;;20.92;46.44
51999;BME280;38015;50.924;11.598;2022-10-16T05:49:30;99345.26;;;20.90;46.48
51999;BME280;38015;50.924;11.598;2022-10-16T05:52:00;99349.78;;;20.93;46.42
51999;BME280;38015;50.924;11.598;2022-10-16T05:54:31;99351.05;;;20.86;46.57
51999;BME280;38015;50.924;11.598;2022-10-16T05:57:01;99351.74;;;20.90;46.44
51999;BME280;38015;50.924;11.598;2022-10-16T05:59:32;99360.76;;;20.82;46.68
51999;BME280;38015;50.924;11.598;2022-10-16T06:02:02;99365.70;;;20.93;46.43
51999;BME280;38015;50.924;11.598;2022-10-16T06:04:32;99367.83;;;20.85;46.59
51999;BME280;38015;50.924;11.598;2022-10-16T06:07:03;99367.62;;;20.89;46.48
51999;BME280;38015;50.924;11.598;2022-10-16T06:09:33;99372.29;;;20.93;46.43
51999;BME280;38015;50.924;11.598;2022-10-16T06:12:04;99373.89;;;20.89;46.53
51999;BME280;38015;50.924;11.598;2022-10-16T06:14:34;99377.64;;;20.86;46.58
51999;BME280;38015;50.924;11.598;2022-10-16T06:17:04;99385.45;;;20.95;46.38
51999;BME280;38015;50.924;11.598;2022-10-16T06:19:35;99391.72;;;20.98;46.30
51999;BME280;38015;50.924;11.598;2022-10-16T06:22:06;99394.54;;;20.93;46.45
51999;BME280;38015;50.924;11.598;2022-10-16T06:24:36;99391.69;;;20.88;46.58
51999;BME280;38015;50.924;11.598;2022-10-16T06:27:06;99381.05;;;20.96;46.38
51999;BME280;38015;50.924;11.598;2022-10-16T06:29:36;99377.25;;;20.91;46.55
51999;BME280;38015;50.924;11.598;2022-10-16T06:32:07;99372.43;;;20.91;46.53
51999;BME280;38015;50.924;11.598;2022-10-16T06:34:37;99366.87;;;20.85;46.82
51999;BME280;38015;50.924;11.598;2022-10-16T06:37:08;99361.96;;;20.85;46.73
51999;BME280;38015;50.924;11.598;2022-10-16T06:39:38;99360.76;;;20.88;46.68
51999;BME280;38015;50.924;11.598;2022-10-16T06:42:09;99363.53;;;20.87;46.74
51999;BME280;38015;50.924;11.598;2022-10-16T06:44:39;99367.27;;;20.84;46.82
51999;BME280;38015;50.924;11.598;2022-10-16T06:47:10;99367.14;;;20.78;46.95
51999;BME280;38015;50.924;11.598;2022-10-16T06:49:40;99368.89;;;20.95;46.52
51999;BME280;38015;50.924;11.598;2022-10-16T06:52:10;99367.01;;;20.94;46.54
51999;BME280;38015;50.924;11.598;2022-10-16T06:54:41;99363.82;;;20.87;46.69
51999;BME280;38015;50.924;11.598;2022-10-16T06:57:11;99361.39;;;20.83;46.78
51999;BME280;38015;50.924;11.598;2022-10-16T06:59:42;99357.26;;;20.87;46.67
51999;BME280;38015;50.924;11.598;2022-10-16T07:02:12;99358.03;;;20.88;46.64
51999;BME280;38015;50.924;11.598;2022-10-16T07:04:42;99359.96;;;20.74;47.01
51999;BME280;38015;50.924;11.598;2022-10-16T07:07:13;99364.08;;;20.90;46.60
51999;BME280;38015;50.924;11.598;2022-10-16T07:09:43;99367.95;;;20.83;46.94
51999;BME280;38015;50.924;11.598;2022-10-16T07:12:14;99383.70;;;20.71;47.24
51999;BME280;38015;50.924;11.598;2022-10-16T07:14:44;99383.72;;;20.79;47.06
51999;BME280;38015;50.924;11.598;2022-10-16T07:17:14;99375.47;;;20.87;46.92
51999;BME280;38015;50.924;11.598;2022-10-16T07:19:45;99377.79;;;20.88;46.96
51999;BME280;38015;50.924;11.598;2022-10-16T07:22:15;99381.92;;;20.93;46.87
51999;BME280;38015;50.924;11.598;2022-10-16T07:24:46;99404.72;;;20.89;46.83
51999;BME280;38015;50.924;11.598;2022-10-16T07:27:16;99409.79;;;20.91;46.83
51999;BME280;38015;50.924;11.598;2022-10-16T07:29:46;99418.48;;;20.85;47.05
51999;BME280;38015;50.924;11.598;2022-10-16T07:32:17;99419.48;;;20.74;47.41
51999;BME280;38015;50.924;11.598;2022-10-16T07:34:47;99417.53;;;20.80;47.31
51999;BME280;38015;50.924;11.598;2022-10-16T07:37:18;99413.82;;;20.78;47.43
51999;BME280;38015;50.924;11.598;2022-10-16T07:39:48;99421.54;;;20.70;47.60
51999;BME280;38015;50.924;11.598;2022-10-16T07:42:19;99429.61;;;20.81;47.39
51999;BME280;38015;50.924;11.598;2022-10-16T07:44:49;99430.97;;;20.78;47.49
51999;BME280;38015;50.924;11.598;2022-10-16T07:47:19;99430.07;;;20.76;47.54
51999;BME280;38015;50.924;11.598;2022-10-16T07:49:50;99433.66;;;20.74;47.72
51999;BME280;38015;50.924;11.598;2022-10-16T07:52:20;99434.16;;;20.76;47.55
51999;BME280;38015;50.924;11.598;2022-10-16T07:54:50;99439.64;;;20.70;47.82
51999;BME280;38015;50.924;11.598;2022-10-16T07:57:21;99437.81;;;20.73;47.70
51999;BME280;38015;50.924;11.598;2022-10-16T07:59:51;99434.36;;;20.73;47.74
51999;BME280;38015;50.924;11.598;2022-10-16T08:02:22;99431.29;;;20.78;47.54
51999;BME280;38015;50.924;11.598;2022-10-16T08:04:52;99424.76;;;20.68;47.85
51999;BME280;38015;50.924;11.598;2022-10-16T08:07:23;99423.16;;;20.79;47.54
51999;BME280;38015;50.924;11.598;2022-10-16T08:09:53;99422.64;;;20.69;47.80
51999;BME280;38015;50.924;11.598;2022-10-16T08:12:23;99426.07;;;20.73;47.77
51999;BME280;38015;50.924;11.598;2022-10-16T08:14:54;99428.26;;;20.75;47.75
51999;BME280;38015;50.924;11.598;2022-10-16T08:17:24;99434.68;;;20.72;47.82
51999;BME280;38015;50.924;11.598;2022-10-16T08:19:55;99442.07;;;20.65;48.07
51999;BME280;38015;50.924;11.598;2022-10-16T08:22:25;99435.56;;;20.66;48.11
51999;BME280;38015;50.924;11.598;2022-10-16T08:24:55;99437.95;;;20.70;48.08
51999;BME280;38015;50.924;11.598;2022-10-16T08:27:31;99447.89;;;20.70;48.11
51999;BME280;38015;50.924;11.598;2022-10-16T08:29:56;99451.98;;;20.80;47.87
51999;BME280;38015;50.924;11.598;2022-10-16T08:32:27;99455.63;;;20.83;47.74
51999;BME280;38015;50.924;11.598;2022-10-16T08:34:57;99465.09;;;20.78;47.89
51999;BME280;38015;50.924;11.598;2022-10-16T08:37:30;99474.85;;;20.83;47.75
51999;BME280;38015;50.924;11.598;2022-10-16T08:39:58;99472.70;;;20.81;47.84
51999;BME280;38015;50.924;11.598;2022-10-16T08:42:40;99480.48;;;20.76;47.98
51999;BME280;38015;50.924;11.598;2022-10-16T08:45:10;99476.96;;;20.79;48.03
51999;BME280;38015;50.924;11.598;2022-10-16T08:47:40;99490.63;;;20.84;47.92
51999;BME280;38015;50.924;11.598;2022-10-16T08:50:02;99499.26;;;20.77;48.02
51999;BME280;38015;50.924;11.598;2022-10-16T08:52:33;99501.36;;;20.81;47.98
51999;BME280;38015;50.924;11.598;2022-10-16T08:55:01;99499.72;;;20.69;48.31
51999;BME280;38015;50.924;11.598;2022-10-16T08:57:31;99507.75;;;20.71;48.27
51999;BME280;38015;50.924;11.598;2022-10-16T09:00:12;99498.43;;;20.79;48.05
51999;BME280;38015;50.924;11.598;2022-10-16T09:02:34;99499.34;;;20.85;47.96
51999;BME280;38015;50.924;11.598;2022-10-16T09:05:15;99507.08;;;20.82;48.08
51999;BME280;38015;50.924;11.598;2022-10-16T09:07:38;99514.13;;;20.76;48.34
51999;BME280;38015;50.924;11.598;2022-10-16T09:10:14;99513.94;;;20.72;48.80
51999;BME280;38015;50.924;11.598;2022-10-16T09:12:38;99513.98;;;20.78;49.01
51999;BME280;38015;50.924;11.598;2022-10-16T09:15:14;99514.94;;;20.84;48.68
51999;BME280;38015;50.924;11.598;2022-10-16T09:17:41;99519.85;;;20.76;48.74
51999;BME280;38015;50.924;11.598;2022-10-16T09:20:13;99528.24;;;20.83;48.53
51999;BME280;38015;50.924;11.598;2022-10-16T09:22:35;99531.95;;;20.77;48.61
51999;BME280;38015;50.924;11.598;2022-10-16T09:25:12;99533.11;;;20.77;48.69
51999;BME280;38015;50.924;11.598;2022-10-16T09:27:36;99536.84;;;20.82;48.63
51999;BME280;38015;50.924;11.598;2022-10-16T09:30:12;99537.89;;;20.83;48.46
51999;BME280;38015;50.924;11.598;2022-10-16T09:32:38;99539.24;;;20.85;48.44
51999;BME280;38015;50.924;11.598;2022-10-16T09:35:13;99541.06;;;20.82;48.78
51999;BME280;38015;50.924;11.598;2022-10-16T09:37:37;99539.85;;;20.93;48.36
51999;BME280;38015;50.924;11.598;2022-10-16T09:40:13;99540.97;;;20.87;48.58
51999;BME280;38015;50.924;11.598;2022-10-16T09:42:38;99546.52;;;20.90;48.75
51999;BME280;38015;50.924;11.598;2022-10-16T09:47:41;99534.75;;;20.94;48.52
51999;BME280;38015;50.924;11.598;2022-10-16T09:50:20;99535.92;;;20.99;48.56
51999;BME280;38015;50.924;11.598;2022-10-16T09:52:40;99537.36;;;20.94;49.05
51999;BME280;38015;50.924;11.598;2022-10-16T09:55:14;99539.30;;;21.00;48.93
51999;BME280;38015;50.924;11.598;2022-10-16T09:57:49;99542.76;;;20.93;49.03
51999;BME280;38015;50.924;11.598;2022-10-16T10:00:16;99541.42;;;20.97;48.88
51999;BME280;38015;50.924;11.598;2022-10-16T10:02:41;99550.20;;;20.97;48.80
51999;BME280;38015;50.924;11.598;2022-10-16T10:05:18;99552.07;;;21.04;48.87
51999;BME280;38015;50.924;11.598;2022-10-16T10:07:44;99554.42;;;20.85;49.10
51999;BME280;38015;50.924;11.598;2022-10-16T10:10:20;99559.80;;;20.82;49.12
51999;BME280;38015;50.924;11.598;2022-10-16T10:12:45;99565.00;;;20.93;48.91
51999;BME280;38015;50.924;11.598;2022-10-16T10:15:14;99560.00;;;20.96;48.78
51999;BME280;38015;50.924;11.598;2022-10-16T10:17:46;99557.24;;;20.96;49.01
51999;BME280;38015;50.924;11.598;2022-10-16T10:20:22;99560.40;;;20.77;49.47
51999;BME280;38015;50.924;11.598;2022-10-16T10:22:45;99556.22;;;20.91;49.09
51999;BME280;38015;50.924;11.598;2022-10-16T10:25:25;99564.18;;;20.83;48.96
51999;BME280;38015;50.924;11.598;2022-10-16T10:27:58;99570.71;;;20.92;49.07
51999;BME280;38015;50.924;11.598;2022-10-16T10:30:22;99579.56;;;20.98;48.90
51999;BME280;38015;50.924;11.598;2022-10-16T10:32:54;99571.87;;;20.97;49.25
51999;BME280;38015;50.924;11.598;2022-10-16T10:35:22;99571.10;;;20.71;49.64
51999;BME280;38015;50.924;11.598;2022-10-16T10:38:00;99573.05;;;20.63;50.03
51999;BME280;38015;50.924;11.598;2022-10-16T10:40:29;99574.12;;;20.75;50.09
51999;BME280;38015;50.924;11.598;2022-10-16T10:42:53;99575.25;;;20.63;50.37
51999;BME280;38015;50.924;11.598;2022-10-16T10:45:26;99573.69;;;20.67;50.24
51999;BME280;38015;50.924;11.598;2022-10-16T10:47:59;99575.25;;;20.63;50.14
51999;BME280;38015;50.924;11.598;2022-10-16T10:50:25;99576.12;;;20.57;50.42
51999;BME280;38015;50.924;11.598;2022-10-16T10:52:58;99582.21;;;20.64;49.97
51999;BME280;38015;50.924;11.598;2022-10-16T10:55:25;99578.54;;;20.63;50.82
51999;BME280;38015;50.924;11.598;2022-10-16T10:58:00;99578.31;;;20.63;50.83
51999;BME280;38015;50.924;11.598;2022-10-16T11:00:27;99581.35;;;20.70;50.61
51999;BME280;38015;50.924;11.598;2022-10-16T11:02:58;99575.79;;;20.65;50.56
51999;BME280;38015;50.924;11.598;2022-10-16T11:05:29;99575.94;;;20.65;50.68
51999;BME280;38015;50.924;11.598;2022-10-16T11:07:55;99575.26;;;20.63;50.56
51999;BME280;38015;50.924;11.598;2022-10-16T11:10:25;99580.82;;;20.69;50.12
51999;BME280;38015;50.924;11.598;2022-10-16T11:12:57;99585.58;;;20.61;50.62
51999;BME280;38015;50.924;11.598;2022-10-16T11:15:27;99586.71;;;20.77;50.19
51999;BME280;38015;50.924;11.598;2022-10-16T11:17:59;99585.18;;;20.84;49.99
51999;BME280;38015;50.924;11.598;2022-10-16T11:20:27;99594.81;;;20.84;49.97
51999;BME280;38015;50.924;11.598;2022-10-16T11:22:57;99591.47;;;20.81;49.72
51999;BME280;38015;50.924;11.598;2022-10-16T11:25:27;99593.41;;;20.87;49.68
51999;BME280;38015;50.924;11.598;2022-10-16T11:28:01;99589.40;;;20.86;49.63
51999;BME280;38015;50.924;11.598;2022-10-16T11:30:27;99591.71;;;20.80;49.81
51999;BME280;38015;50.924;11.598;2022-10-16T11:33:06;99596.58;;;20.82;49.62
51999;BME280;38015;50.924;11.598;2022-10-16T11:35:36;99599.69;;;20.78;49.83
51999;BME280;38015;50.924;11.598;2022-10-16T11:37:58;99597.69;;;20.83;49.53
51999;BME280;38015;50.924;11.598;2022-10-16T11:40:30;99601.06;;;20.80;49.76
51999;BME280;38015;50.924;11.598;2022-10-16T11:43:02;99591.38;;;20.91;49.69
51999;BME280;38015;50.924;11.598;2022-10-16T11:45:34;99593.41;;;20.80;50.20
51999;BME280;38015;50.924;11.598;2022-10-16T11:48:04;99596.70;;;20.65;50.46
51999;BME280;38015;50.924;11.598;2022-10-16T11:50:32;99596.17;;;20.57;50.95
51999;BME280;38015;50.924;11.598;2022-10-16T11:53:04;99596.61;;;20.62;50.52
51999;BME280;38015;50.924;11.598;2022-10-16T11:55:34;99598.19;;;20.62;50.67
51999;BME280;38015;50.924;11.598;2022-10-16T11:58:03;99595.75;;;20.57;50.61
51999;BME280;38015;50.924;11.598;2022-10-16T12:00:35;99603.48;;;20.60;50.67
51999;BME280;38015;50.924;11.598;2022-10-16T12:03:10;99599.77;;;20.56;51.06
51999;BME280;38015;50.924;11.598;2022-10-16T12:05:42;99601.91;;;20.60;51.16
51999;BME280;38015;50.924;11.598;2022-10-16T12:08:08;99602.32;;;20.53;51.51
51999;BME280;38015;50.924;11.598;2022-10-16T12:10:32;99603.14;;;20.55;51.41
51999;BME280;38015;50.924;11.598;2022-10-16T12:13:03;99608.66;;;20.64;50.80
51999;BME280;38015;50.924;11.598;2022-10-16T12:15:33;99608.99;;;20.69;50.75
51999;BME280;38015;50.924;11.598;2022-10-16T12:18:03;99611.88;;;20.68;50.39
51999;BME280;38015;50.924;11.598;2022-10-16T12:20:34;99612.82;;;20.70;50.16
51999;BME280;38015;50.924;11.598;2022-10-16T12:23:05;99615.88;;;20.82;50.10
51999;BME280;38015;50.924;11.598;2022-10-16T12:25:36;99617.06;;;20.89;50.20
51999;BME280;38015;50.924;11.598;2022-10-16T12:28:16;99616.77;;;20.98;49.74
51999;BME280;38015;50.924;11.598;2022-10-16T12:30:36;99616.43;;;21.14;48.96
51999;BME280;38015;50.924;11.598;2022-10-16T12:33:16;99616.40;;;21.18;48.62
51999;BME280;38015;50.924;11.598;2022-10-16T12:35:43;99608.30;;;21.20;48.50
51999;BME280;38015;50.924;11.598;2022-10-16T12:38:14;99608.39;;;21.19;48.36
51999;BME280;38015;50.924;11.598;2022-10-16T12:40:38;99610.34;;;21.05;49.31
51999;BME280;38015;50.924;11.598;2022-10-16T12:43:13;99611.40;;;21.06;48.91
51999;BME280;38015;50.924;11.598;2022-10-16T12:45:39;99610.19;;;20.88;50.01
51999;BME280;38015;50.924;11.598;2022-10-16T12:50:39;99611.63;;;21.02;49.31
51999;BME280;38015;50.924;11.598;2022-10-16T12:53:17;99610.04;;;20.99;49.55
51999;BME280;38015;50.924;11.598;2022-10-16T12:55:46;99613.40;;;21.05;49.04
51999;BME280;38015;50.924;11.598;2022-10-16T12:58:20;99610.76;;;21.03;49.10
51999;BME280;38015;50.924;11.598;2022-10-16T13:00:44;99614.75;;;21.03;48.91
51999;BME280;38015;50.924;11.598;2022-10-16T13:03:25;99612.28;;;20.90;49.17
51999;BME280;38015;50.924;11.598;2022-10-16T13:05:52;99612.24;;;21.02;48.89
51999;BME280;38015;50.924;11.598;2022-10-16T13:08:26;99610.37;;;20.86;49.04
51999;BME280;38015;50.924;11.598;2022-10-16T13:10:51;99615.74;;;20.88;49.19